Latest Coastal Weather Observations for Cooktown

IDQ60701

Issued at 11:42 pm EST Saturday 1 October 2016 (issued every 10 minutes, with the page automatically refreshed every 10 minutes)

About coastal observations | Map of coastal stations | Coastal observations for QLD | Marine services | Other Formats
Station Details ID: 031209 Name: COOKTOWN AIRPORT Lat: -15.45 Lon: 145.19 Height: 4.8 m
Data from the previous 72 hours. | See also: Recent months at Cooktown
Date/Time
EST
Temp
°C
Wind Pressure Rain since
9am
mm
Weather Cloud Vis
km
Sea
Height
m
Swell
Dir  Spd
kts
Gust
kts
hPa Trend Height
m
Period
s
Dir
01/11:37pm 22.2 CALM 0 0 1012.4 - 0.0 - Partly cloudy 5 - - - -
01/11:30pm 22.1 CALM 0 0 1012.6 - 0.0 - Partly cloudy 10 - - - -
01/11:06pm 22.1 CALM 0 0 1012.8 - 0.0 - Partly cloudy 9 - - - -
01/11:00pm 22.2 CALM 0 0 1012.9 - 0.0 - Partly cloudy 7 - - - -
01/10:43pm 22.6 CALM 0 0 1012.9 - 0.0 - - 5 - - - -
01/10:41pm 22.6 CALM 0 0 1012.9 - 0.0 - - 7 - - - -
01/10:30pm 22.3 CALM 0 0 1013.0 - 0.0 - Partly cloudy 5 - - - -
01/10:21pm 22.8 CALM 0 0 1013.1 - 0.0 - Partly cloudy 5 - - - -
01/10:00pm 22.9 CALM 0 0 1013.0 - 0.0 - Partly cloudy 10 - - - -
01/09:50pm 23.1 CALM 0 0 1013.0 - 0.0 - Partly cloudy 10 - - - -
01/09:38pm 23.4 CALM 0 0 1013.0 - 0.0 - Partly cloudy 10 - - - -
01/09:30pm 23.6 CALM 0 0 1012.9 - 0.0 - Partly cloudy 10 - - - -
01/09:00pm 23.8 CALM 0 0 1012.6 - 0.0 - Mostly clear 9 - - - -
01/08:30pm 23.6 CALM 0 0 1012.5 - 0.0 - Partly cloudy 10 - - - -
01/08:00pm 23.9 CALM 0 0 1012.3 - 0.0 - - 10 - - - -
01/07:30pm 24.6 CALM 0 0 1012.1 - 0.0 - - 10 - - - -
01/07:00pm 25.2 E 4 5 1012.0 - 0.0 - - 10 - - - -
01/06:30pm 26.2 E 7 8 1012.0 - 0.0 - Partly cloudy 10 - - - -
01/06:00pm 27.0 E 9 11 1011.7 - 0.0 - - 10 - - - -
01/05:30pm 27.7 E 10 12 1011.5 - 0.0 - - 10 - - - -
01/05:00pm 27.8 ENE 10 13 1011.5 - 0.0 - - 10 - - - -
01/04:30pm 29.0 E 11 14 1011.2 - 0.0 - Partly cloudy 10 - - - -
01/04:00pm 29.3 E 11 15 1011.2 - 0.0 - - 10 - - - -
01/03:30pm 29.0 E 10 15 1011.1 - 0.0 - - 10 - - - -
01/03:00pm 28.4 E 11 15 1011.0 - 0.0 - - 10 - - - -
01/02:30pm 28.6 ENE 10 14 1011.4 - 0.0 - Partly cloudy 10 - - - -
01/02:00pm 28.6 E 11 14 1011.7 - 0.0 - Partly cloudy 10 - - - -
01/01:30pm 29.0 E 11 14 1012.2 - 0.0 - Partly cloudy 10 - - - -
01/01:00pm 29.2 E 11 14 1012.5 - 0.0 - Partly cloudy 10 - - - -
01/12:30pm 29.6 E 10 14 1012.9 - 0.0 - Partly cloudy 10 - - - -
01/12:00pm 30.6 ESE 11 15 1013.2 - 0.0 - Partly cloudy 10 - - - -
01/11:30am 29.0 ENE 10 16 1013.6 - 0.0 - Partly cloudy 10 - - - -
01/11:00am 30.8 ESE 10 13 1013.8 - 0.0 - Partly cloudy 10 - - - -
01/10:30am 29.1 E 11 14 1014.0 - 0.0 - Partly cloudy 10 - - - -
01/10:00am 29.0 ENE 10 15 1014.3 - 0.0 - Partly cloudy 10 - - - -
01/09:30am 28.8 ENE 11 16 1014.3 - 0.0 - Partly cloudy 10 - - - -
01/09:00am 28.8 E 10 14 1014.1 R 1.4 Fine Mostly clear 35 - - - -
01/08:30am 27.9 ENE 9 12 1014.0 - 1.4 - Partly cloudy 10 - - - -
01/08:07am 27.3 E 9 12 1013.8 - 1.4 - Partly cloudy 10 - - - -
01/08:00am 27.0 NE 6 11 1013.7 - 1.4 - Partly cloudy 10 - - - -
01/07:30am 24.9 CALM 0 0 1013.5 - 1.4 - Partly cloudy 10 - - - -
01/07:21am 24.6 CALM 0 0 1013.3 - 1.4 - Partly cloudy 10 - - - -
01/07:00am 24.0 CALM 0 0 1012.9 - 1.4 - Partly cloudy 10 - - - -
01/06:30am 23.1 CALM 0 0 1012.5 - 1.4 - Partly cloudy 7 - - - -
01/06:00am 23.3 CALM 0 3 1011.8 - 1.4 - - 10 - - - -
01/05:30am 23.2 NW 3 5 1011.6 - 1.4 - - 9 - - - -
01/05:00am 23.6 CALM 0 0 1011.1 - 1.4 - - 10 - - - -
01/04:30am 23.7 CALM 0 0 1010.9 - 1.4 - - 10 - - - -
01/04:00am 23.7 CALM 0 0 1010.7 - 1.4 - - 10 - - - -
01/03:30am 23.7 CALM 0 0 1010.6 - 1.4 - - 10 - - - -
01/03:00am 23.6 NW 1 0 1010.5 - 1.4 - - 10 - - - -
01/02:30am 23.6 NW 1 5 1010.6 - 1.4 - Partly cloudy 10 - - - -
01/02:00am 23.8 CALM 0 1 1010.7 - 1.4 - - 10 - - - -
01/01:30am 24.1 CALM 0 0 1011.0 - 1.4 - Partly cloudy 10 - - - -
01/01:00am 24.2 CALM 0 0 1011.4 - 1.4 - Partly cloudy 10 - - - -
01/12:32am 24.4 CALM 0 0 1011.6 - 1.4 - Partly cloudy 10 - - - -
01/12:30am 24.4 CALM 0 0 1011.6 - 1.4 - Partly cloudy 10 - - - -
01/12:20am 24.4 CALM 0 0 1011.8 - 1.4 - Partly cloudy 10 - - - -
01/12:00am 24.3 NW 3 4 1011.8 - 1.4 - Partly cloudy 10 - - - -
 
Date/Time
EST
Temp
°C
Wind Pressure Rain since
9am
mm
Weather Cloud Vis
km
Sea
Height
m
Swell
Dir  Spd
kts
Gust
kts
hPa Trend Height
m
Period
s
Dir
30/11:30pm 24.5 W 3 5 1012.1 - 1.4 - Partly cloudy 10 - - - -
30/11:00pm 24.5 W 5 7 1012.2 - 1.4 - Partly cloudy 10 - - - -
30/10:30pm 24.6 CALM 0 0 1011.6 - 1.4 - Partly cloudy 10 - - - -
30/10:00pm 24.7 CALM 0 0 1011.5 - 1.4 - - 10 - - - -
30/09:30pm 24.7 NNE 1 3 1011.0 - 1.2 - - 10 - - - -
30/09:00pm 24.7 CALM 0 0 1010.3 - 1.2 - Mostly cloudy 10 - - - -
30/08:30pm 24.9 NNE 4 6 1010.2 - 0.4 - Partly cloudy 10 - - - -
30/08:00pm 25.3 N 6 8 1009.9 - 0.2 - Partly cloudy 10 - - - -
30/07:30pm 25.5 N 5 7 1009.7 - 0.2 - Partly cloudy 10 - - - -
30/07:00pm 26.2 NE 4 5 1009.3 - 0.0 - Partly cloudy 10 - - - -
30/06:30pm 26.6 SSE 4 6 1009.3 - 0.0 - Cloudy 10 - - - -
30/06:00pm 26.9 E 5 6 1008.8 - 0.0 - Mostly cloudy 10 - - - -
30/05:30pm 26.9 ESE 7 10 1008.3 - 0.0 - - 10 - - - -
30/05:00pm 27.9 E 10 13 1007.9 - 0.0 - - 10 - - - -
30/04:30pm 29.8 E 11 15 1007.4 - 0.0 - - 10 - - - -
30/04:00pm 31.3 ENE 8 11 1007.2 - 0.0 - - 10 - - - -
30/03:30pm 31.6 ENE 9 13 1007.2 - 0.0 - - 10 - - - -
30/03:00pm 32.3 NNE 10 14 1006.9 - 0.0 - - 10 - - - -
30/02:30pm 33.0 NNE 10 13 1007.1 - 0.0 - - 10 - - - -
30/02:00pm 33.4 N 9 13 1007.5 - 0.0 - - 10 - - - -
30/01:30pm 32.6 E 12 17 1008.2 - 0.0 - Partly cloudy 10 - - - -
30/01:00pm 31.8 E 13 18 1008.8 - 0.0 - - 10 - - - -
30/12:30pm 31.8 E 12 15 1009.5 - 0.0 - - 10 - - - -
30/12:00pm 31.5 E 12 15 1009.9 - 0.0 - - 10 - - - -
30/11:30am 32.0 E 10 14 1010.4 - 0.0 - - 10 - - - -
30/11:00am 30.4 E 10 13 1010.8 - 0.0 - Partly cloudy 10 - - - -
30/10:30am 30.5 ENE 5 11 1011.1 - 0.0 - Partly cloudy 10 - - - -
30/10:00am 30.3 NW 4 7 1011.3 - 0.0 - - 10 - - - -
30/09:30am 29.4 N 5 11 1011.4 - 0.0 - - 10 - - - -
30/09:00am 27.9 N 5 7 1011.6 - 0.0 - - 10 - - - -
30/08:30am 27.5 N 4 6 1011.9 - 0.0 - - 10 - - - -
30/08:00am 25.7 N 4 5 1011.8 - 0.0 - - 10 - - - -
30/07:30am 23.9 W 3 4 1011.4 - 0.0 - - 10 - - - -
30/07:00am 22.5 SW 1 4 1011.2 - 0.0 - - 10 - - - -
30/06:30am 21.3 CALM 0 0 1010.8 - 0.0 - - 10 - - - -
30/06:00am 21.0 CALM 0 0 1010.3 - 0.0 - - 10 - - - -
30/05:30am 21.1 CALM 0 0 1010.1 - 0.0 - - 10 - - - -
30/05:00am 21.3 CALM 0 0 1009.9 - 0.0 - - 10 - - - -
30/04:30am 21.5 CALM 0 0 1009.9 - 0.0 - - 10 - - - -
30/04:00am 21.8 CALM 0 0 1009.5 - 0.0 - - 10 - - - -
30/03:30am 21.7 CALM 0 0 1009.7 - 0.0 - - 10 - - - -
30/03:00am 22.2 WSW 3 6 1009.8 - 0.0 - - 10 - - - -
30/02:30am 22.0 CALM 0 0 1009.9 - 0.0 - - 10 - - - -
30/02:00am 22.3 CALM 0 3 1010.1 - 0.0 - - 10 - - - -
30/01:30am 22.2 N 1 4 1010.2 - 0.0 - - 10 - - - -
30/01:00am 22.3 CALM 0 0 1010.6 - 0.0 - - 10 - - - -
30/12:30am 22.5 CALM 0 0 1011.0 - 0.0 - - 10 - - - -
30/12:00am 22.6 NW 3 5 1011.3 - 0.0 - - 10 - - - -
 
Date/Time
EST
Temp
°C
Wind Pressure Rain since
9am
mm
Weather Cloud Vis
km
Sea
Height
m
Swell
Dir  Spd
kts
Gust
kts
hPa Trend Height
m
Period
s
Dir
29/11:30pm 22.7 CALM 0 0 1011.6 - 0.0 - Partly cloudy 10 - - - -
29/11:00pm 23.0 W 2 7 1011.8 - 0.0 - Partly cloudy 10 - - - -
29/10:30pm 22.1 NW 4 5 1011.2 - 0.0 - - 10 - - - -
29/10:00pm 22.7 CALM 0 0 1011.1 - 0.0 - - 10 - - - -
29/09:30pm 22.9 CALM 0 0 1011.2 - 0.0 - - 10 - - - -
29/09:00pm 23.0 CALM 0 0 1010.6 - 0.0 - - 10 - - - -
29/08:30pm 23.5 CALM 0 0 1010.3 - 0.0 - - 10 - - - -
29/08:00pm 24.2 CALM 0 0 1009.9 - 0.0 - - 10 - - - -
29/07:30pm 24.5 ENE 4 5 1009.3 - 0.0 - - 10 - - - -
29/07:00pm 25.3 NE 4 5 1008.9 - 0.0 - - 10 - - - -
29/06:30pm 25.9 NE 4 6 1008.7 - 0.0 - - 10 - - - -
29/06:00pm 26.8 NNE 5 8 1008.1 - 0.0 - - 10 - - - -
29/05:30pm 27.8 NNE 8 12 1008.0 - 0.0 - - 10 - - - -
29/05:00pm 28.4 NE 8 11 1007.6 - 0.0 - - 10 - - - -
29/04:30pm 29.1 E 10 14 1007.3 - 0.0 - - 10 - - - -
29/04:00pm 28.8 E 13 17 1007.2 - 0.0 - - 10 - - - -
29/03:30pm 28.8 E 14 18 1007.3 - 0.0 - - 10 - - - -
29/03:00pm 29.2 E 14 18 1007.5 - 0.0 - - 10 - - - -
29/02:30pm 29.6 E 13 19 1007.8 - 0.0 - - 10 - - - -
29/02:00pm 30.2 E 14 18 1008.4 - 0.0 - - 10 - - - -
29/01:30pm 30.2 ENE 13 16 1008.9 - 0.0 - - 10 - - - -
29/01:00pm 30.1 E 13 16 1009.4 - 0.0 - - 10 - - - -
29/12:30pm 30.2 E 11 16 1009.7 - 0.0 - - 10 - - - -
29/12:00pm 30.0 E 11 15 1010.1 - 0.0 - - 10 - - - -
29/11:30am 30.6 E 10 15 1010.6 - 0.0 - - 10 - - - -
29/11:00am 29.7 ESE 8 13 1011.4 - 0.0 - - 10 - - - -
29/10:30am 29.7 E 8 12 1011.7 - 0.0 - - 10 - - - -
29/10:00am 29.3 E 7 10 1012.0 - 0.0 - - 10 - - - -
29/09:30am 28.9 ENE 5 9 1012.0 - 0.0 - Partly cloudy 10 - - - -
29/09:00am 26.9 N 2 3 1012.0 F 0.0 Fine Partly cloudy 35 - - - -
29/08:30am 28.0 NE 3 6 1011.9 - 0.0 - Partly cloudy 10 - - - -
29/08:00am 25.5 CALM 0 0 1011.8 - 0.0 - - 10 - - - -
29/07:30am 23.3 CALM 0 0 1011.7 - 0.0 - - 10 - - - -
29/07:00am 21.7 CALM 0 0 1011.5 - 0.0 - - 10 - - - -
29/06:30am 20.9 W 2 4 1011.4 - 0.0 - Partly cloudy 10 - - - -
29/06:00am 20.8 W 2 4 1010.9 - 0.0 - Mostly clear 10 - - - -
29/05:30am 21.0 W 3 4 1010.6 - 0.0 - Partly cloudy 10 - - - -
29/05:00am 20.6 W 4 5 1010.3 - 0.0 - Partly cloudy 10 - - - -
29/04:30am 21.2 WNW 3 4 1010.0 - 0.0 - Partly cloudy 10 - - - -
29/04:00am 21.2 CALM 0 0 1010.0 - 0.0 - Partly cloudy 10 - - - -
29/03:30am 20.9 CALM 0 0 1010.0 - 0.0 - Partly cloudy 10 - - - -
29/03:00am 21.3 CALM 0 0 1009.9 - 0.0 - Partly cloudy 10 - - - -
29/02:30am 21.2 CALM 0 0 1010.3 - 0.0 - - 10 - - - -
29/02:00am 21.7 CALM 0 0 1010.6 - 0.0 - Partly cloudy 10 - - - -
29/01:30am 22.3 NW 3 4 1011.1 - 0.0 - Partly cloudy 10 - - - -
29/01:00am 22.6 N 2 3 1011.6 - 0.0 - Partly cloudy 10 - - - -
29/12:30am 24.7 E 5 7 1012.0 - 0.0 - Partly cloudy 10 - - - -
29/12:00am 24.9 ENE 5 7 1012.1 - 0.0 - Mostly clear 10 - - - -

Other Formats:

Comma delimited format used in spreadsheet applications
http://www.bom.gov.au/fwo/IDQ60701/IDQ60701.95283.axf

JavaScript Object Notation format (JSON) in row-major order
http://www.bom.gov.au/fwo/IDQ60701/IDQ60701.95283.json